KSDF 170356Z 01004KT 10SM FEW250 27/19 A3003 RMK AO2 SLP163 T02670189 $